Ackermanville, Pennsylvania
Current Conditions -  °F | °C
As of 3:51 AM on Saturday 25 Oct 2014 (Local Time) from KABE Reporting Station
Clear Clear  
Wind Chill:   Ceiling: Unl
Heat Index:   Visibility: 10mi
Dew Point:   Wind: 0mph
Humidity: 61%   Direction: NA
Pressure: 29.9"   Gusts: NA
Location:  40.84°N, 75.22°W
Report Text: KABE 250751Z 00000KT 10SM CLR 08/01 A2990 RMK AO2 SLP126 T00780006
Loading
Personal Weather Stations






























Interactive Weather Map New forecast layout! Learn more

10-Day Weather Forecast

Advertisements
Track Severe Weather on mobile